createdAt,value
2018-01-21T00:00:17.038Z,41.90
2018-01-21T00:01:17.016Z,43.00
2018-01-21T00:02:16.994Z,40.50
2018-01-21T00:03:16.961Z,40.20
2018-01-21T00:04:16.938Z,41.20
2018-01-21T00:05:16.913Z,40.30
2018-01-21T00:06:16.898Z,41.70
2018-01-21T00:07:16.868Z,41.50
2018-01-21T00:08:16.847Z,44.20
2018-01-21T00:09:16.827Z,40.50
2018-01-21T00:10:16.801Z,43.10
2018-01-21T00:11:16.776Z,41.30
2018-01-21T00:12:16.753Z,39.70
2018-01-21T00:13:16.731Z,40.20
2018-01-21T00:14:16.706Z,39.60
2018-01-21T00:15:16.686Z,43.40
2018-01-21T00:16:16.670Z,41.50
2018-01-21T00:17:16.645Z,42.70
2018-01-21T00:18:16.616Z,39.40
2018-01-21T00:19:16.596Z,42.20
2018-01-21T00:20:16.569Z,42.20
2018-01-21T00:21:16.554Z,38.60
2018-01-21T00:22:16.525Z,42.70
2018-01-21T00:23:16.507Z,41.20
2018-01-21T00:24:16.483Z,42.30
2018-01-21T00:25:16.465Z,37.50
2018-01-21T00:26:16.440Z,39.30
2018-01-21T00:27:16.412Z,41.00
2018-01-21T00:28:16.396Z,41.10
2018-01-21T00:29:16.376Z,39.40
2018-01-21T00:30:16.345Z,40.00
2018-01-21T00:31:16.324Z,41.50
2018-01-21T00:32:16.305Z,41.90
2018-01-21T00:33:16.277Z,40.70
2018-01-21T00:34:16.260Z,40.20
2018-01-21T00:35:16.238Z,42.70
2018-01-21T00:36:16.208Z,40.40
2018-01-21T00:37:16.189Z,40.80
2018-01-21T00:38:16.166Z,39.90
2018-01-21T00:39:16.140Z,41.30
2018-01-21T00:40:16.119Z,39.90
2018-01-21T00:41:16.100Z,39.50
2018-01-21T00:42:16.076Z,38.70
2018-01-21T00:43:16.055Z,39.10
2018-01-21T00:44:16.035Z,38.80
2018-01-21T00:45:16.005Z,41.50
2018-01-21T00:46:15.991Z,40.30
2018-01-21T00:47:15.965Z,40.40
2018-01-21T00:48:15.946Z,39.10
2018-01-21T00:49:15.916Z,39.00
2018-01-21T00:50:15.899Z,40.70
2018-01-21T00:51:15.872Z,41.80
2018-01-21T00:52:15.848Z,43.40
2018-01-21T00:53:15.829Z,40.50
2018-01-21T00:54:15.808Z,42.90
2018-01-21T00:55:15.787Z,43.20
2018-01-21T00:56:15.762Z,42.50
2018-01-21T00:57:15.744Z,44.80
2018-01-21T00:58:15.714Z,41.30
2018-01-21T00:59:15.698Z,47.60
2018-01-21T01:00:15.673Z,44.40
2018-01-21T01:01:15.649Z,42.80
2018-01-21T01:02:15.625Z,42.80
2018-01-21T01:03:15.609Z,43.20
2018-01-21T01:04:15.581Z,42.10
2018-01-21T01:05:15.575Z,41.30
2018-01-21T01:06:15.535Z,41.20
2018-01-21T01:07:15.515Z,40.50
2018-01-21T01:08:15.495Z,42.10
2018-01-21T01:09:15.468Z,42.00
2018-01-21T01:10:15.511Z,43.70
2018-01-21T01:11:15.427Z,43.60
2018-01-21T01:12:15.405Z,42.00
2018-01-21T01:13:15.376Z,42.80
2018-01-21T01:14:15.357Z,47.30
2018-01-21T01:15:15.337Z,44.30
2018-01-21T01:16:15.320Z,43.40
2018-01-21T01:17:15.287Z,43.80
2018-01-21T01:18:15.266Z,45.90
2018-01-21T01:19:15.249Z,47.40
2018-01-21T01:20:15.223Z,49.20
2018-01-21T01:21:15.198Z,51.50
2018-01-21T01:22:15.175Z,50.50
2018-01-21T01:23:15.156Z,48.20
2018-01-21T01:24:15.135Z,51.40
2018-01-21T01:25:15.111Z,50.20
2018-01-21T01:26:15.085Z,51.50
2018-01-21T01:27:15.066Z,52.10
2018-01-21T01:28:15.054Z,50.50
2018-01-21T01:29:15.019Z,53.20
2018-01-21T01:30:14.996Z,51.20
2018-01-21T01:31:14.974Z,54.40
2018-01-21T01:32:14.960Z,57.60
2018-01-21T01:33:14.928Z,50.20
2018-01-21T01:34:14.908Z,51.10
2018-01-21T01:35:14.886Z,51.90
2018-01-21T01:36:14.863Z,51.60
2018-01-21T01:37:14.853Z,59.70
2018-01-21T01:38:14.817Z,59.10
2018-01-21T01:39:14.792Z,56.40
2018-01-21T01:40:14.769Z,59.30
2018-01-21T01:41:14.759Z,60.50
2018-01-21T01:42:14.725Z,64.70
2018-01-21T01:43:14.709Z,64.00
2018-01-21T01:44:14.684Z,67.30
2018-01-21T01:45:14.663Z,65.70
2018-01-21T01:46:14.641Z,71.60
2018-01-21T01:47:14.617Z,65.60
2018-01-21T01:48:14.596Z,69.40
2018-01-21T01:49:14.571Z,68.80
2018-01-21T01:50:14.546Z,70.80
2018-01-21T01:51:14.523Z,68.60
2018-01-21T01:52:14.506Z,78.00
2018-01-21T01:53:14.495Z,79.60
2018-01-21T01:54:14.458Z,80.70
2018-01-21T01:55:14.435Z,83.10
2018-01-21T01:56:14.413Z,78.30
2018-01-21T01:57:14.388Z,77.20
2018-01-21T01:58:14.367Z,77.60
2018-01-21T01:59:14.348Z,79.00
2018-01-21T02:00:14.325Z,81.00
2018-01-21T02:01:14.339Z,80.40
2018-01-21T02:02:14.277Z,79.90
2018-01-21T02:03:14.254Z,79.20
2018-01-21T02:04:14.234Z,68.20
2018-01-21T02:05:14.214Z,71.50
2018-01-21T02:06:14.186Z,68.40
2018-01-21T02:07:14.166Z,73.10
2018-01-21T02:08:14.146Z,66.10
2018-01-21T02:09:14.116Z,65.70
2018-01-21T02:10:14.095Z,68.90
2018-01-21T02:11:14.072Z,67.70
2018-01-21T02:12:14.055Z,66.60
2018-01-21T02:13:14.039Z,61.80
2018-01-21T02:14:14.002Z,56.00
2018-01-21T02:15:13.982Z,54.20
2018-01-21T02:16:13.957Z,60.00
2018-01-21T02:17:13.936Z,56.10
2018-01-21T02:18:13.913Z,51.80
2018-01-21T02:19:13.889Z,46.30
2018-01-21T02:20:13.864Z,50.40
2018-01-21T02:21:13.841Z,42.10
2018-01-21T02:22:13.826Z,43.50
2018-01-21T02:23:13.795Z,43.10
2018-01-21T02:24:13.773Z,41.90
2018-01-21T02:25:13.754Z,41.90
2018-01-21T02:26:13.734Z,40.80
2018-01-21T02:27:13.706Z,41.80
2018-01-21T02:28:13.681Z,39.20
2018-01-21T02:29:13.659Z,38.20
2018-01-21T02:30:13.636Z,37.10
2018-01-21T02:31:13.612Z,39.30
2018-01-21T02:32:13.593Z,38.70
2018-01-21T02:33:13.566Z,36.80
2018-01-21T02:34:13.544Z,42.00
2018-01-21T02:35:13.519Z,42.90
2018-01-21T02:36:13.501Z,41.10
2018-01-21T02:37:13.476Z,39.60
2018-01-21T02:38:13.451Z,49.20
2018-01-21T02:39:13.439Z,42.60
2018-01-21T02:40:13.406Z,43.00
2018-01-21T02:41:13.380Z,44.60
2018-01-21T02:42:13.364Z,47.00
2018-01-21T02:43:13.336Z,45.70
2018-01-21T02:44:13.316Z,46.10
2018-01-21T02:45:13.291Z,44.30
2018-01-21T02:46:13.266Z,44.10
2018-01-21T02:47:13.245Z,40.90
2018-01-21T02:48:13.222Z,43.70
2018-01-21T02:49:13.205Z,45.40
2018-01-21T02:50:13.175Z,44.00
2018-01-21T02:51:13.154Z,42.80
2018-01-21T02:52:13.138Z,42.60
2018-01-21T02:53:13.109Z,47.70
2018-01-21T02:54:13.092Z,42.40
2018-01-21T02:55:13.073Z,45.00
2018-01-21T02:56:13.038Z,42.60
2018-01-21T02:57:13.021Z,43.30
2018-01-21T02:58:12.993Z,43.20
2018-01-21T02:59:12.968Z,44.30
2018-01-21T03:00:12.945Z,43.60
2018-01-21T03:01:12.926Z,46.00
2018-01-21T03:02:12.900Z,43.90
2018-01-21T03:03:12.880Z,42.60
2018-01-21T03:04:12.856Z,42.70
2018-01-21T03:05:12.833Z,39.60
2018-01-21T03:06:12.810Z,41.20
2018-01-21T03:07:12.789Z,40.60
2018-01-21T03:08:12.768Z,42.80
2018-01-21T03:09:12.744Z,41.80
2018-01-21T03:10:12.715Z,39.10
2018-01-21T03:11:12.699Z,38.50
2018-01-21T03:12:12.671Z,40.80
2018-01-21T03:13:12.647Z,38.60
2018-01-21T03:14:12.631Z,38.10
2018-01-21T03:15:12.612Z,36.30
2018-01-21T03:16:12.579Z,38.40
2018-01-21T03:17:12.563Z,39.40
2018-01-21T03:18:12.536Z,37.70
2018-01-21T03:19:12.511Z,36.40
2018-01-21T03:20:12.491Z,37.90
2018-01-21T03:21:12.469Z,37.80
2018-01-21T03:22:12.444Z,36.70
2018-01-21T03:23:12.423Z,36.30
2018-01-21T03:24:12.414Z,35.50
2018-01-21T03:25:12.375Z,37.50
2018-01-21T03:26:12.352Z,35.10
2018-01-21T03:27:12.335Z,37.40
2018-01-21T03:28:12.310Z,39.00
2018-01-21T03:29:12.289Z,36.00
2018-01-21T03:30:12.262Z,41.00
2018-01-21T03:31:12.243Z,35.60
2018-01-21T03:32:12.219Z,34.50
2018-01-21T03:33:12.196Z,34.20
2018-01-21T03:34:12.172Z,38.80
2018-01-21T03:35:12.150Z,38.70
2018-01-21T03:36:12.126Z,35.90
2018-01-21T03:37:12.104Z,36.70
2018-01-21T03:38:12.080Z,36.80
2018-01-21T03:39:12.059Z,33.80
2018-01-21T03:40:12.038Z,35.80
2018-01-21T03:41:12.014Z,35.70
2018-01-21T03:42:11.992Z,36.30
2018-01-21T03:43:11.972Z,37.90
2018-01-21T03:44:11.946Z,35.30
2018-01-21T03:45:11.920Z,36.80
2018-01-21T03:46:11.910Z,32.70
2018-01-21T03:47:11.876Z,35.90
2018-01-21T03:48:11.855Z,31.30
2018-01-21T03:49:11.837Z,32.60
2018-01-21T03:50:11.811Z,37.80
2018-01-21T03:51:11.785Z,32.70
2018-01-21T03:52:11.764Z,32.90
2018-01-21T03:53:11.746Z,32.50
2018-01-21T03:54:11.716Z,30.90
2018-01-21T03:55:11.697Z,32.30
2018-01-21T03:56:11.669Z,33.00
2018-01-21T03:57:11.652Z,32.50
2018-01-21T03:58:11.632Z,30.20
2018-01-21T03:59:11.602Z,31.20
2018-01-21T04:00:11.586Z,32.10
2018-01-21T04:01:11.556Z,31.10
2018-01-21T04:02:11.532Z,29.40
2018-01-21T04:03:11.507Z,31.10
2018-01-21T04:04:11.484Z,28.30
2018-01-21T04:05:11.466Z,31.20
2018-01-21T04:06:11.444Z,32.20
2018-01-21T04:07:11.421Z,29.30
2018-01-21T04:08:11.395Z,31.60
2018-01-21T04:09:11.372Z,33.00
2018-01-21T04:10:11.350Z,30.90
2018-01-21T04:11:11.326Z,28.10
2018-01-21T04:12:11.302Z,32.10
2018-01-21T04:13:11.278Z,29.40
2018-01-21T04:14:11.255Z,29.60
2018-01-21T04:15:11.236Z,27.50
2018-01-21T04:16:11.212Z,32.30
2018-01-21T04:17:11.189Z,29.00
2018-01-21T04:18:11.165Z,33.50
2018-01-21T04:19:11.142Z,28.60
2018-01-21T04:20:11.119Z,30.00
2018-01-21T04:21:11.099Z,28.90
2018-01-21T04:22:11.079Z,32.00
2018-01-21T04:23:11.060Z,28.90
2018-01-21T04:24:11.027Z,27.70
2018-01-21T04:25:11.003Z,26.50
2018-01-21T04:26:10.985Z,26.00
2018-01-21T04:27:10.961Z,30.10
2018-01-21T04:28:10.936Z,30.60
2018-01-21T04:29:10.916Z,25.90
2018-01-21T04:30:10.893Z,26.30
2018-01-21T04:31:10.865Z,24.10
2018-01-21T04:32:10.841Z,24.40
2018-01-21T04:33:10.828Z,27.70
2018-01-21T04:34:10.798Z,25.10
2018-01-21T04:35:10.776Z,25.40
2018-01-21T04:36:10.755Z,26.00
2018-01-21T04:37:10.732Z,26.10
2018-01-21T04:38:10.705Z,26.80
2018-01-21T04:39:10.686Z,23.00
2018-01-21T04:40:10.660Z,28.40
2018-01-21T04:41:10.636Z,24.80
2018-01-21T04:42:10.615Z,22.10
2018-01-21T04:43:10.596Z,23.00
2018-01-21T04:44:10.570Z,21.30
2018-01-21T04:45:10.546Z,21.00
2018-01-21T04:46:10.524Z,22.30
2018-01-21T04:47:10.501Z,22.00
2018-01-21T04:48:10.482Z,22.60
2018-01-21T04:49:10.453Z,22.60
2018-01-21T04:50:10.429Z,21.80
2018-01-21T04:51:10.411Z,20.90
2018-01-21T04:52:10.386Z,21.50
2018-01-21T04:53:10.366Z,20.80
2018-01-21T04:54:10.338Z,20.60
2018-01-21T04:55:10.315Z,22.60
2018-01-21T04:56:10.293Z,20.00
2018-01-21T04:57:10.269Z,21.20
2018-01-21T04:58:10.245Z,22.50
2018-01-21T04:59:10.224Z,20.20
2018-01-21T05:00:10.199Z,20.80
2018-01-21T05:01:10.187Z,24.00
2018-01-21T05:02:10.153Z,22.20
2018-01-21T05:03:10.138Z,23.40
2018-01-21T05:04:10.109Z,22.20
2018-01-21T05:05:10.087Z,22.20
2018-01-21T05:06:10.064Z,24.30
2018-01-21T05:07:10.040Z,22.90
2018-01-21T05:08:10.015Z,21.10
2018-01-21T05:09:09.993Z,22.90
2018-01-21T05:10:09.968Z,20.50
2018-01-21T05:11:09.947Z,22.10
2018-01-21T05:12:09.925Z,23.60
2018-01-21T05:13:09.906Z,24.10
2018-01-21T05:14:09.879Z,26.10
2018-01-21T05:15:09.855Z,25.90
2018-01-21T05:16:09.834Z,26.50
2018-01-21T05:17:09.810Z,25.90
2018-01-21T05:18:09.786Z,28.30
2018-01-21T05:19:09.762Z,29.20
2018-01-21T05:20:09.739Z,26.50
2018-01-21T05:21:09.716Z,27.10
2018-01-21T05:22:09.691Z,27.40
2018-01-21T05:23:09.676Z,26.70
2018-01-21T05:24:09.650Z,27.50
2018-01-21T05:25:09.625Z,30.10
2018-01-21T05:26:09.604Z,27.10
2018-01-21T05:27:09.580Z,32.60
2018-01-21T05:28:09.555Z,29.50
2018-01-21T05:29:09.534Z,29.10
2018-01-21T05:30:09.516Z,29.30
2018-01-21T05:31:09.485Z,26.20
2018-01-21T05:32:09.466Z,28.80
2018-01-21T05:33:09.440Z,28.40
2018-01-21T05:34:09.421Z,32.10
2018-01-21T05:35:09.396Z,29.20
2018-01-21T05:36:09.373Z,29.30
2018-01-21T05:37:09.346Z,29.10
2018-01-21T05:38:09.324Z,33.50
2018-01-21T05:39:09.302Z,34.20
2018-01-21T05:40:09.275Z,34.10
2018-01-21T05:41:09.254Z,27.30
2018-01-21T05:42:09.258Z,33.80
2018-01-21T05:43:09.216Z,32.40
2018-01-21T05:44:09.182Z,31.70
2018-01-21T05:45:09.166Z,35.00
2018-01-21T05:46:09.138Z,29.10
2018-01-21T05:47:09.118Z,32.20
2018-01-21T05:48:09.089Z,29.20
2018-01-21T05:49:09.072Z,31.10
2018-01-21T05:50:09.046Z,30.70
2018-01-21T05:51:09.020Z,31.90
2018-01-21T05:52:08.999Z,28.60
2018-01-21T05:53:08.976Z,31.10
2018-01-21T05:54:08.953Z,30.20
2018-01-21T05:55:08.929Z,27.10
2018-01-21T05:56:08.905Z,28.60
2018-01-21T05:57:08.882Z,32.20
2018-01-21T05:58:08.864Z,28.80
2018-01-21T05:59:08.836Z,33.40
2018-01-21T06:00:08.813Z,30.40
2018-01-21T06:01:08.791Z,28.70
2018-01-21T06:02:08.765Z,30.80
2018-01-21T06:03:08.743Z,31.70
2018-01-21T06:04:08.722Z,31.50
2018-01-21T06:05:08.698Z,31.10
2018-01-21T06:06:08.675Z,33.10
2018-01-21T06:07:08.650Z,27.40
2018-01-21T06:08:08.626Z,28.30
2018-01-21T06:09:08.607Z,28.80
2018-01-21T06:10:08.591Z,31.50
2018-01-21T06:11:08.556Z,27.00
2018-01-21T06:12:08.592Z,26.40
2018-01-21T06:13:08.516Z,25.90
2018-01-21T06:14:08.490Z,27.10
2018-01-21T06:15:08.465Z,28.30
2018-01-21T06:16:08.446Z,26.10
2018-01-21T06:17:08.428Z,28.70
2018-01-21T06:18:08.394Z,29.10
2018-01-21T06:19:08.379Z,29.00
2018-01-21T06:20:08.350Z,31.10
2018-01-21T06:21:08.326Z,27.90
2018-01-21T06:22:08.301Z,28.80
2018-01-21T06:23:08.279Z,27.20
2018-01-21T06:24:08.263Z,27.90
2018-01-21T06:25:08.236Z,26.10
2018-01-21T06:26:08.210Z,28.80
2018-01-21T06:27:08.186Z,26.40
2018-01-21T06:28:08.165Z,26.80
2018-01-21T06:29:08.144Z,30.60
2018-01-21T06:30:08.120Z,27.40
2018-01-21T06:31:08.097Z,26.50
2018-01-21T06:32:08.073Z,26.00
2018-01-21T06:33:08.046Z,30.90
2018-01-21T06:34:08.025Z,26.40
2018-01-21T06:35:08.004Z,26.60
2018-01-21T06:36:07.977Z,27.90
2018-01-21T06:37:07.956Z,29.30
2018-01-21T06:38:07.936Z,28.30
2018-01-21T06:39:07.912Z,25.60
2018-01-21T06:40:07.889Z,27.20
2018-01-21T06:41:07.866Z,27.60
2018-01-21T06:42:07.847Z,26.50
2018-01-21T06:43:07.818Z,26.00
2018-01-21T06:44:07.794Z,27.70
2018-01-21T06:45:07.776Z,24.00
2018-01-21T06:46:07.743Z,26.70
2018-01-21T06:47:07.720Z,24.10
2018-01-21T06:48:07.699Z,22.60
2018-01-21T06:49:07.677Z,24.30
2018-01-21T06:50:07.651Z,24.10
2018-01-21T06:51:07.627Z,20.70
2018-01-21T06:52:07.603Z,21.30
2018-01-21T06:53:07.581Z,24.40
2018-01-21T06:54:07.564Z,22.40
2018-01-21T06:55:07.536Z,22.80
2018-01-21T06:56:07.514Z,26.00
2018-01-21T06:57:07.492Z,24.90
2018-01-21T06:58:07.466Z,23.30
2018-01-21T06:59:07.450Z,22.90
2018-01-21T07:00:07.418Z,23.10
2018-01-21T07:01:07.396Z,24.80
2018-01-21T07:02:07.373Z,22.00
2018-01-21T07:03:07.349Z,24.40
2018-01-21T07:04:07.326Z,23.20
2018-01-21T07:05:07.300Z,22.00
2018-01-21T07:06:07.279Z,23.20
2018-01-21T07:07:07.255Z,19.30
2018-01-21T07:08:07.231Z,21.60
2018-01-21T07:09:07.212Z,21.20
2018-01-21T07:10:07.193Z,24.30
2018-01-21T07:11:07.167Z,20.00
2018-01-21T07:12:07.142Z,22.70
2018-01-21T07:13:07.116Z,25.50
2018-01-21T07:14:07.093Z,24.50
2018-01-21T07:15:07.068Z,22.40
2018-01-21T07:16:07.045Z,22.10
2018-01-21T07:17:07.025Z,22.10
2018-01-21T07:18:07.000Z,21.50
2018-01-21T07:19:06.976Z,23.60
2018-01-21T07:20:06.952Z,21.00
2018-01-21T07:21:06.930Z,24.60
2018-01-21T07:22:06.912Z,25.50
2018-01-21T07:23:06.892Z,24.30
2018-01-21T07:24:06.865Z,20.80
2018-01-21T07:25:06.837Z,21.10
2018-01-21T07:26:06.843Z,20.30
2018-01-21T07:27:06.796Z,23.40
2018-01-21T07:28:06.772Z,25.10
2018-01-21T07:29:06.745Z,22.30
2018-01-21T07:30:06.726Z,23.20
2018-01-21T07:31:06.700Z,22.10
2018-01-21T07:32:06.679Z,25.00
2018-01-21T07:33:06.651Z,22.90
2018-01-21T07:34:06.629Z,22.80
2018-01-21T07:35:06.605Z,23.70
2018-01-21T07:36:06.580Z,20.60
2018-01-21T07:37:06.559Z,22.30
2018-01-21T07:38:06.539Z,23.80
2018-01-21T07:39:06.518Z,20.30
2018-01-21T07:40:06.495Z,21.40
2018-01-21T07:41:06.465Z,21.20
2018-01-21T07:42:06.446Z,21.60
2018-01-21T07:43:06.423Z,23.50
2018-01-21T07:44:06.393Z,24.30
2018-01-21T07:45:06.373Z,23.50
2018-01-21T07:46:06.349Z,25.90
2018-01-21T07:47:06.330Z,23.20
2018-01-21T07:48:06.302Z,21.40
2018-01-21T07:49:06.279Z,21.20
2018-01-21T07:50:06.263Z,23.50
2018-01-21T07:51:06.232Z,19.10
2018-01-21T07:52:06.210Z,24.80
2018-01-21T07:53:06.194Z,21.40
2018-01-21T07:54:06.177Z,19.40
2018-01-21T07:55:06.143Z,20.90
2018-01-21T07:56:06.114Z,23.60
2018-01-21T07:57:06.097Z,21.50
2018-01-21T07:58:06.073Z,20.60
2018-01-21T07:59:06.046Z,20.80
2018-01-21T08:00:06.022Z,21.40
2018-01-21T08:01:06.002Z,23.60
2018-01-21T08:02:05.979Z,21.30
2018-01-21T08:03:05.954Z,20.00
2018-01-21T08:04:05.929Z,21.20
2018-01-21T08:05:05.905Z,22.60
2018-01-21T08:06:05.889Z,21.90
2018-01-21T08:07:05.864Z,21.80
2018-01-21T08:08:05.841Z,22.00
2018-01-21T08:09:05.813Z,20.30
2018-01-21T08:10:05.792Z,20.50
2018-01-21T08:11:05.773Z,19.50
2018-01-21T08:12:05.750Z,21.50
2018-01-21T08:13:05.724Z,22.60
2018-01-21T08:14:05.701Z,20.20
2018-01-21T08:15:05.677Z,20.60
2018-01-21T08:16:05.652Z,21.00
2018-01-21T08:17:05.628Z,18.10
2018-01-21T08:18:05.606Z,19.70
2018-01-21T08:19:05.585Z,21.80
2018-01-21T08:20:05.563Z,23.00
2018-01-21T08:21:05.536Z,17.90
2018-01-21T08:22:05.516Z,19.10
2018-01-21T08:23:05.494Z,19.40
2018-01-21T08:24:05.472Z,21.40
2018-01-21T08:25:05.445Z,18.40
2018-01-21T08:26:05.422Z,20.00
2018-01-21T08:27:05.405Z,20.70
2018-01-21T08:28:05.379Z,18.00
2018-01-21T08:29:05.356Z,17.70
2018-01-21T08:30:05.336Z,21.80
2018-01-21T08:31:05.312Z,17.90
2018-01-21T08:32:05.285Z,18.00
2018-01-21T08:33:05.263Z,18.50
2018-01-21T08:34:05.240Z,18.90
2018-01-21T08:35:05.216Z,21.60
2018-01-21T08:36:05.196Z,18.10
2018-01-21T08:37:05.184Z,16.10
2018-01-21T08:38:05.152Z,17.70
2018-01-21T08:39:05.136Z,17.70
2018-01-21T08:40:05.106Z,17.80
2018-01-21T08:41:05.076Z,16.60
2018-01-21T08:42:05.057Z,17.00
2018-01-21T08:43:05.033Z,17.90
2018-01-21T08:44:05.009Z,19.00
2018-01-21T08:45:04.985Z,16.30
2018-01-21T08:46:04.962Z,15.10
2018-01-21T08:47:04.945Z,20.20
2018-01-21T08:48:04.917Z,18.80
2018-01-21T08:49:04.897Z,16.80
2018-01-21T08:50:04.875Z,17.60
2018-01-21T08:51:04.847Z,19.10
2018-01-21T08:52:04.833Z,16.00
2018-01-21T08:53:04.811Z,13.20
2018-01-21T08:54:04.782Z,16.00
2018-01-21T08:55:04.755Z,14.20
2018-01-21T08:56:04.735Z,17.60
2018-01-21T08:57:04.714Z,15.50
2018-01-21T08:58:04.685Z,14.90
2018-01-21T08:59:04.668Z,13.90
2018-01-21T09:00:04.674Z,17.10
2018-01-21T09:01:04.621Z,17.60
2018-01-21T09:02:04.598Z,14.70
2018-01-21T09:03:04.573Z,15.80
2018-01-21T09:04:04.558Z,14.70
2018-01-21T09:05:04.525Z,17.90
2018-01-21T09:06:04.501Z,16.50
2018-01-21T09:07:04.489Z,18.50
2018-01-21T09:08:04.456Z,15.70
2018-01-21T09:09:04.438Z,15.60
2018-01-21T09:10:04.416Z,17.10
2018-01-21T09:11:04.389Z,17.00
2018-01-21T09:12:04.368Z,16.20
2018-01-21T09:13:04.341Z,16.50
2018-01-21T09:14:04.328Z,20.90
2018-01-21T09:15:04.297Z,17.80
2018-01-21T09:16:04.271Z,14.30
2018-01-21T09:17:04.251Z,15.90
2018-01-21T09:18:04.233Z,14.60
2018-01-21T09:19:04.231Z,18.30
2018-01-21T09:20:04.180Z,14.60
2018-01-21T09:21:04.159Z,20.10
2018-01-21T09:22:04.139Z,14.00
2018-01-21T09:23:04.110Z,17.40
2018-01-21T09:24:04.086Z,16.50
2018-01-21T09:25:04.065Z,15.40
2018-01-21T09:26:04.041Z,16.20
2018-01-21T09:27:04.017Z,12.20
2018-01-21T09:28:03.993Z,14.30
2018-01-21T09:29:03.972Z,17.20
2018-01-21T09:30:03.957Z,16.70
2018-01-21T09:31:03.929Z,14.10
2018-01-21T09:32:03.913Z,16.40
2018-01-21T09:33:03.885Z,16.10
2018-01-21T09:34:03.864Z,17.30
2018-01-21T09:35:03.833Z,16.60
2018-01-21T09:36:03.812Z,21.20
2018-01-21T09:37:03.796Z,15.40
2018-01-21T09:38:03.816Z,16.30
2018-01-21T09:39:03.739Z,19.60
2018-01-21T09:40:03.718Z,17.40
2018-01-21T09:41:03.700Z,15.20
2018-01-21T09:42:03.679Z,15.20
2018-01-21T09:43:03.656Z,16.30
2018-01-21T09:44:03.630Z,17.80
2018-01-21T09:45:03.600Z,17.80
2018-01-21T09:46:03.585Z,14.20
2018-01-21T09:47:03.566Z,16.80
2018-01-21T09:48:03.533Z,19.50
2018-01-21T09:49:03.514Z,15.90
2018-01-21T09:50:03.496Z,16.40
2018-01-21T09:51:03.466Z,17.40
2018-01-21T09:52:03.444Z,15.10
2018-01-21T09:53:03.428Z,17.40
2018-01-21T09:54:03.399Z,17.70
2018-01-21T09:55:03.380Z,16.10
2018-01-21T09:56:03.360Z,14.80
2018-01-21T09:57:03.381Z,13.80
2018-01-21T09:58:03.303Z,19.00
2018-01-21T09:59:03.280Z,18.10
2018-01-21T10:00:03.256Z,14.90
2018-01-21T10:01:03.232Z,14.60
2018-01-21T10:02:03.222Z,13.80
2018-01-21T10:03:03.200Z,13.90
2018-01-21T10:04:03.168Z,12.70
2018-01-21T10:05:03.147Z,17.30
2018-01-21T10:06:03.122Z,15.00
2018-01-21T10:07:03.109Z,13.70
2018-01-21T10:08:03.082Z,19.40
2018-01-21T10:09:03.065Z,16.80
2018-01-21T10:10:03.035Z,17.30
2018-01-21T10:11:03.005Z,14.50
2018-01-21T10:12:02.990Z,16.30
2018-01-21T10:13:02.966Z,12.50
2018-01-21T10:14:02.935Z,14.80
2018-01-21T10:15:02.914Z,9.90
2018-01-21T10:16:02.890Z,13.40
2018-01-21T10:17:02.867Z,13.60
2018-01-21T10:18:02.845Z,13.20
2018-01-21T10:19:02.826Z,12.20
2018-01-21T10:20:02.807Z,12.20
2018-01-21T10:21:02.774Z,10.80
2018-01-21T10:22:02.754Z,17.30
2018-01-21T10:23:02.738Z,13.80
2018-01-21T10:24:02.710Z,14.10
2018-01-21T10:25:02.687Z,13.50
2018-01-21T10:26:02.662Z,14.90
2018-01-21T10:27:02.644Z,15.00
2018-01-21T10:28:02.621Z,15.50
2018-01-21T10:29:02.605Z,9.60
2018-01-21T10:30:02.577Z,12.10
2018-01-21T10:31:02.561Z,12.50
2018-01-21T10:32:02.534Z,14.40
2018-01-21T10:33:02.506Z,10.60
2018-01-21T10:34:02.492Z,13.30
2018-01-21T10:35:02.465Z,10.50
2018-01-21T10:36:02.438Z,13.10
2018-01-21T10:37:02.426Z,12.90
2018-01-21T10:38:02.417Z,10.30
2018-01-21T10:39:02.387Z,12.70
2018-01-21T10:40:02.346Z,11.40
2018-01-21T10:41:02.322Z,12.20
2018-01-21T10:42:02.305Z,15.40
2018-01-21T10:43:02.277Z,12.60
2018-01-21T10:44:02.274Z,9.70
2018-01-21T10:45:02.232Z,10.80
2018-01-21T10:46:02.209Z,8.90
2018-01-21T10:47:02.184Z,11.70
2018-01-21T10:48:02.174Z,8.10
2018-01-21T10:49:02.140Z,13.40
2018-01-21T10:50:02.127Z,12.40
2018-01-21T10:51:02.106Z,7.40
2018-01-21T10:52:02.074Z,9.60
2018-01-21T10:53:02.048Z,7.10
2018-01-21T10:54:02.034Z,9.10
2018-01-21T10:55:02.006Z,8.30
2018-01-21T10:56:01.990Z,11.10
2018-01-21T10:57:01.967Z,10.60
2018-01-21T10:58:01.950Z,13.80
2018-01-21T10:59:01.912Z,9.60
2018-01-21T11:00:01.891Z,12.40
2018-01-21T11:01:01.867Z,9.30
2018-01-21T11:02:01.853Z,10.00
2018-01-21T11:03:01.824Z,10.80
2018-01-21T11:04:01.801Z,11.60
2018-01-21T11:05:01.780Z,9.20
2018-01-21T11:06:01.756Z,8.60
2018-01-21T11:07:01.737Z,7.80
2018-01-21T11:08:01.715Z,8.80
2018-01-21T11:09:01.696Z,7.50
2018-01-21T11:10:01.666Z,11.60
2018-01-21T11:11:01.641Z,12.90
2018-01-21T11:12:01.624Z,11.20
2018-01-21T11:13:01.610Z,10.70
2018-01-21T11:14:01.573Z,10.80
2018-01-21T11:15:01.550Z,8.80
2018-01-21T11:16:01.534Z,14.70
2018-01-21T11:17:01.506Z,7.30
2018-01-21T11:18:01.484Z,11.90
2018-01-21T11:19:01.466Z,11.70
2018-01-21T11:20:01.437Z,6.60
2018-01-21T11:21:01.422Z,8.60
2018-01-21T11:22:01.393Z,8.90
2018-01-21T11:23:01.374Z,10.60
2018-01-21T11:24:01.346Z,8.30
2018-01-21T11:25:01.323Z,10.60
2018-01-21T11:26:01.304Z,8.50
2018-01-21T11:27:01.281Z,10.50
2018-01-21T11:28:01.264Z,11.10
2018-01-21T11:29:01.234Z,11.60
2018-01-21T11:30:01.217Z,9.40
2018-01-21T11:31:01.197Z,9.90
2018-01-21T11:32:01.167Z,10.40
2018-01-21T11:33:01.144Z,8.50
2018-01-21T11:34:01.120Z,8.80
2018-01-21T11:35:01.097Z,10.30
2018-01-21T11:36:01.077Z,7.80
2018-01-21T11:37:01.063Z,11.50
2018-01-21T11:38:01.034Z,10.20
2018-01-21T11:39:01.011Z,11.90
2018-01-21T11:40:00.987Z,11.60
2018-01-21T11:41:00.968Z,10.40
2018-01-21T11:42:00.941Z,10.80
2018-01-21T11:43:00.921Z,6.80
2018-01-21T11:44:00.898Z,9.60
2018-01-21T11:45:00.875Z,7.30
2018-01-21T11:46:00.852Z,10.60
2018-01-21T11:47:00.832Z,8.10
2018-01-21T11:48:00.804Z,9.30
2018-01-21T11:49:00.786Z,9.40
2018-01-21T11:50:00.763Z,10.00
2018-01-21T11:51:00.741Z,6.00
2018-01-21T11:52:00.719Z,10.30
2018-01-21T11:53:00.693Z,8.30
2018-01-21T11:54:00.673Z,6.00
2018-01-21T11:55:00.656Z,9.40
2018-01-21T11:56:00.626Z,11.30
2018-01-21T11:57:00.609Z,7.50
2018-01-21T11:58:00.587Z,8.70
2018-01-21T11:59:00.565Z,7.70
2018-01-21T12:00:00.541Z,8.30
2018-01-21T12:01:00.516Z,10.60
2018-01-21T12:02:00.495Z,7.80
2018-01-21T12:03:00.470Z,9.50
2018-01-21T12:04:00.446Z,10.00
2018-01-21T12:05:00.430Z,10.60
2018-01-21T12:06:00.406Z,9.30
2018-01-21T12:07:00.388Z,8.00
2018-01-21T12:08:00.366Z,11.20
2018-01-21T12:09:00.336Z,10.00
2018-01-21T12:10:00.316Z,8.70
2018-01-21T12:11:00.300Z,10.80
2018-01-21T12:12:00.276Z,9.80
2018-01-21T12:13:00.251Z,14.40
2018-01-21T12:14:00.230Z,10.60
2018-01-21T12:15:00.208Z,8.50
2018-01-21T12:16:00.192Z,10.60
2018-01-21T12:17:00.164Z,7.00
2018-01-21T12:18:00.142Z,10.20
2018-01-21T12:19:00.122Z,9.30
2018-01-21T12:20:00.091Z,8.40
2018-01-21T12:21:00.076Z,9.40
2018-01-21T12:22:00.047Z,10.90
2018-01-21T12:23:00.074Z,7.90
2018-01-21T12:24:00.012Z,5.90
2018-01-21T12:24:59.988Z,11.50
2018-01-21T12:26:00.022Z,8.60
2018-01-21T12:26:59.986Z,8.70
2018-01-21T12:27:59.921Z,9.00
2018-01-21T12:28:59.891Z,9.10
2018-01-21T12:29:59.873Z,9.20
2018-01-21T12:30:59.856Z,10.10
2018-01-21T12:31:59.828Z,8.10
2018-01-21T12:32:59.812Z,9.40
2018-01-21T12:33:59.784Z,9.30
2018-01-21T12:34:59.765Z,7.00
2018-01-21T12:35:59.734Z,11.10
2018-01-21T12:36:59.715Z,8.90
2018-01-21T12:37:59.695Z,6.60
2018-01-21T12:38:59.672Z,10.40
2018-01-21T12:39:59.652Z,10.30
2018-01-21T12:40:59.629Z,6.00
2018-01-21T12:41:59.609Z,6.50
2018-01-21T12:42:59.582Z,6.80
2018-01-21T12:43:59.556Z,8.00
2018-01-21T12:44:59.535Z,8.20
2018-01-21T12:45:59.518Z,10.40
2018-01-21T12:46:59.504Z,5.20
2018-01-21T12:47:59.468Z,8.30
2018-01-21T12:48:59.444Z,8.30
2018-01-21T12:49:59.429Z,6.20
2018-01-21T12:50:59.407Z,8.00
2018-01-21T12:51:59.385Z,7.60
2018-01-21T12:52:59.370Z,5.90
2018-01-21T12:53:59.336Z,7.40
2018-01-21T12:54:59.315Z,7.70